sensor_id;sensor_type;location;lat;lon;timestamp;temperature;humidity
48946;DHT22;34999;50.940;3.998;2022-12-18T00:01:15;-6.30;99.90
48946;DHT22;34999;50.940;3.998;2022-12-18T00:04:06;-6.30;99.90
48946;DHT22;34999;50.940;3.998;2022-12-18T00:06:55;-6.30;99.90
48946;DHT22;34999;50.940;3.998;2022-12-18T00:09:43;-6.10;99.90
48946;DHT22;34999;50.940;3.998;2022-12-18T00:12:32;-6.10;99.90
48946;DHT22;34999;50.940;3.998;2022-12-18T00:15:21;-6.10;99.90
48946;DHT22;34999;50.940;3.998;2022-12-18T00:18:10;-6.20;99.90
48946;DHT22;34999;50.940;3.998;2022-12-18T00:21:06;-6.30;99.90
48946;DHT22;34999;50.940;3.998;2022-12-18T00:23:58;-6.40;99.90
48946;DHT22;34999;50.940;3.998;2022-12-18T00:26:46;-6.50;99.90
48946;DHT22;34999;50.940;3.998;2022-12-18T00:29:34;-6.40;99.90
48946;DHT22;34999;50.940;3.998;2022-12-18T00:32:24;-6.30;99.90
48946;DHT22;34999;50.940;3.998;2022-12-18T00:35:12;-6.30;99.90
48946;DHT22;34999;50.940;3.998;2022-12-18T00:38:01;-6.40;99.90
48946;DHT22;34999;50.940;3.998;2022-12-18T00:40:50;-6.40;99.90
48946;DHT22;34999;50.940;3.998;2022-12-18T00:43:38;-6.50;99.90
48946;DHT22;34999;50.940;3.998;2022-12-18T00:46:27;-6.50;99.90
48946;DHT22;34999;50.940;3.998;2022-12-18T00:49:18;-6.60;99.90
48946;DHT22;34999;50.940;3.998;2022-12-18T00:52:07;-6.70;99.90
48946;DHT22;34999;50.940;3.998;2022-12-18T00:54:57;-6.70;99.90
48946;DHT22;34999;50.940;3.998;2022-12-18T00:57:52;-6.80;99.90
48946;DHT22;34999;50.940;3.998;2022-12-18T01:00:41;-6.80;99.90
48946;DHT22;34999;50.940;3.998;2022-12-18T01:03:29;-6.80;99.90
48946;DHT22;34999;50.940;3.998;2022-12-18T01:06:19;-6.90;99.90
48946;DHT22;34999;50.940;3.998;2022-12-18T01:09:07;-7.00;99.90
48946;DHT22;34999;50.940;3.998;2022-12-18T01:11:35;-7.00;99.90
48946;DHT22;34999;50.940;3.998;2022-12-18T01:14:04;-7.10;99.90
48946;DHT22;34999;50.940;3.998;2022-12-18T01:16:32;-7.10;99.90
48946;DHT22;34999;50.940;3.998;2022-12-18T01:19:00;-7.10;99.90
48946;DHT22;34999;50.940;3.998;2022-12-18T01:21:30;-7.10;99.90
48946;DHT22;34999;50.940;3.998;2022-12-18T01:23:59;-7.10;99.90
48946;DHT22;34999;50.940;3.998;2022-12-18T01:26:27;-7.10;99.90
48946;DHT22;34999;50.940;3.998;2022-12-18T01:28:57;-7.20;99.90
48946;DHT22;34999;50.940;3.998;2022-12-18T01:31:27;-7.20;99.90
48946;DHT22;34999;50.940;3.998;2022-12-18T01:33:56;-7.30;99.90
48946;DHT22;34999;50.940;3.998;2022-12-18T01:36:27;-7.20;99.90
48946;DHT22;34999;50.940;3.998;2022-12-18T01:38:59;-7.20;99.90
48946;DHT22;34999;50.940;3.998;2022-12-18T01:41:30;-7.30;99.90
48946;DHT22;34999;50.940;3.998;2022-12-18T01:44:57;-7.30;99.90
48946;DHT22;34999;50.940;3.998;2022-12-18T01:47:29;-7.30;99.90
48946;DHT22;34999;50.940;3.998;2022-12-18T01:50:00;-7.40;99.90
48946;DHT22;34999;50.940;3.998;2022-12-18T01:52:31;-7.40;99.90
48946;DHT22;34999;50.940;3.998;2022-12-18T01:55:03;-7.40;99.90
48946;DHT22;34999;50.940;3.998;2022-12-18T01:57:33;-7.40;99.90
48946;DHT22;34999;50.940;3.998;2022-12-18T02:00:05;-7.40;99.90
48946;DHT22;34999;50.940;3.998;2022-12-18T02:02:35;-7.40;99.90
48946;DHT22;34999;50.940;3.998;2022-12-18T02:05:04;-7.40;99.90
48946;DHT22;34999;50.940;3.998;2022-12-18T02:07:40;-7.40;99.90
48946;DHT22;34999;50.940;3.998;2022-12-18T02:10:15;-7.40;99.90
48946;DHT22;34999;50.940;3.998;2022-12-18T02:12:48;-7.40;99.90
48946;DHT22;34999;50.940;3.998;2022-12-18T02:15:24;-7.40;99.90
48946;DHT22;34999;50.940;3.998;2022-12-18T02:18:00;-7.50;99.90
48946;DHT22;34999;50.940;3.998;2022-12-18T02:20:34;-7.40;99.90
48946;DHT22;34999;50.940;3.998;2022-12-18T02:23:13;-7.50;99.90
48946;DHT22;34999;50.940;3.998;2022-12-18T02:26:01;-7.40;99.90
48946;DHT22;34999;50.940;3.998;2022-12-18T02:28:32;-7.50;99.90
48946;DHT22;34999;50.940;3.998;2022-12-18T02:31:03;-7.50;99.90
48946;DHT22;34999;50.940;3.998;2022-12-18T02:33:34;-7.50;99.90
48946;DHT22;34999;50.940;3.998;2022-12-18T02:36:06;-7.50;99.90
48946;DHT22;34999;50.940;3.998;2022-12-18T02:38:38;-7.50;99.90
48946;DHT22;34999;50.940;3.998;2022-12-18T02:41:09;-7.60;99.90
48946;DHT22;34999;50.940;3.998;2022-12-18T02:43:39;-7.60;99.90
48946;DHT22;34999;50.940;3.998;2022-12-18T02:46:36;-7.60;99.90
48946;DHT22;34999;50.940;3.998;2022-12-18T02:49:12;-7.70;99.90
48946;DHT22;34999;50.940;3.998;2022-12-18T02:51:48;-7.70;99.90
48946;DHT22;34999;50.940;3.998;2022-12-18T02:54:29;-7.70;99.90
48946;DHT22;34999;50.940;3.998;2022-12-18T02:57:08;-7.70;99.90
48946;DHT22;34999;50.940;3.998;2022-12-18T02:59:42;-7.60;99.90
48946;DHT22;34999;50.940;3.998;2022-12-18T03:02:20;-7.60;99.90
48946;DHT22;34999;50.940;3.998;2022-12-18T03:04:53;-7.60;99.90
48946;DHT22;34999;50.940;3.998;2022-12-18T03:07:35;-7.60;99.90
48946;DHT22;34999;50.940;3.998;2022-12-18T03:10:07;-7.70;99.90
48946;DHT22;34999;50.940;3.998;2022-12-18T03:12:41;-7.70;99.90
48946;DHT22;34999;50.940;3.998;2022-12-18T03:15:16;-7.70;99.90
48946;DHT22;34999;50.940;3.998;2022-12-18T03:17:50;-7.70;99.90
48946;DHT22;34999;50.940;3.998;2022-12-18T03:20:22;-7.70;99.90
48946;DHT22;34999;50.940;3.998;2022-12-18T03:22:56;-7.70;99.90
48946;DHT22;34999;50.940;3.998;2022-12-18T03:25:27;-7.70;99.90
48946;DHT22;34999;50.940;3.998;2022-12-18T03:28:00;-7.80;99.90
48946;DHT22;34999;50.940;3.998;2022-12-18T03:30:29;-7.80;99.90
48946;DHT22;34999;50.940;3.998;2022-12-18T03:33:02;-7.90;99.90
48946;DHT22;34999;50.940;3.998;2022-12-18T03:35:37;-7.90;99.90
48946;DHT22;34999;50.940;3.998;2022-12-18T03:38:07;-7.90;99.90
48946;DHT22;34999;50.940;3.998;2022-12-18T03:40:43;-7.90;99.90
48946;DHT22;34999;50.940;3.998;2022-12-18T03:43:20;-7.90;99.90
48946;DHT22;34999;50.940;3.998;2022-12-18T03:45:59;-8.00;99.90
48946;DHT22;34999;50.940;3.998;2022-12-18T03:48:33;-8.00;99.90
48946;DHT22;34999;50.940;3.998;2022-12-18T03:51:09;-8.00;99.90
48946;DHT22;34999;50.940;3.998;2022-12-18T03:53:44;-8.00;99.90
48946;DHT22;34999;50.940;3.998;2022-12-18T03:56:16;-8.10;99.90
48946;DHT22;34999;50.940;3.998;2022-12-18T03:58:48;-8.10;99.90
48946;DHT22;34999;50.940;3.998;2022-12-18T04:01:19;-8.10;99.90
48946;DHT22;34999;50.940;3.998;2022-12-18T04:03:49;-8.10;99.90
48946;DHT22;34999;50.940;3.998;2022-12-18T04:06:19;-8.00;99.90
48946;DHT22;34999;50.940;3.998;2022-12-18T04:08:48;-8.00;99.90
48946;DHT22;34999;50.940;3.998;2022-12-18T04:11:17;-8.00;99.90
48946;DHT22;34999;50.940;3.998;2022-12-18T04:13:46;-8.10;99.90
48946;DHT22;34999;50.940;3.998;2022-12-18T04:16:14;-8.10;99.90
48946;DHT22;34999;50.940;3.998;2022-12-18T04:18:43;-8.00;99.90
48946;DHT22;34999;50.940;3.998;2022-12-18T04:21:12;-8.10;99.90
48946;DHT22;34999;50.940;3.998;2022-12-18T04:23:41;-8.10;99.90
48946;DHT22;34999;50.940;3.998;2022-12-18T04:26:10;-8.10;99.90
48946;DHT22;34999;50.940;3.998;2022-12-18T04:28:38;-8.10;99.90
48946;DHT22;34999;50.940;3.998;2022-12-18T04:31:08;-8.00;99.90
48946;DHT22;34999;50.940;3.998;2022-12-18T04:33:36;-8.10;99.90
48946;DHT22;34999;50.940;3.998;2022-12-18T04:36:05;-8.10;99.90
48946;DHT22;34999;50.940;3.998;2022-12-18T04:38:34;-8.10;99.90
48946;DHT22;34999;50.940;3.998;2022-12-18T04:41:02;-8.10;99.90
48946;DHT22;34999;50.940;3.998;2022-12-18T04:43:30;-8.10;99.90
48946;DHT22;34999;50.940;3.998;2022-12-18T04:46:03;-8.00;99.90
48946;DHT22;34999;50.940;3.998;2022-12-18T04:48:37;-7.80;99.90
48946;DHT22;34999;50.940;3.998;2022-12-18T04:51:05;-7.80;99.90
48946;DHT22;34999;50.940;3.998;2022-12-18T04:53:34;-7.70;99.90
48946;DHT22;34999;50.940;3.998;2022-12-18T04:56:05;-7.60;99.90
48946;DHT22;34999;50.940;3.998;2022-12-18T04:58:33;-7.60;99.90
48946;DHT22;34999;50.940;3.998;2022-12-18T05:01:02;-7.60;99.90
48946;DHT22;34999;50.940;3.998;2022-12-18T05:03:30;-7.60;99.90
48946;DHT22;34999;50.940;3.998;2022-12-18T05:06:00;-7.50;99.90
48946;DHT22;34999;50.940;3.998;2022-12-18T05:08:28;-7.60;99.90
48946;DHT22;34999;50.940;3.998;2022-12-18T05:11:00;-7.60;99.90
48946;DHT22;34999;50.940;3.998;2022-12-18T05:13:29;-7.50;99.90
48946;DHT22;34999;50.940;3.998;2022-12-18T05:15:57;-7.50;99.90
48946;DHT22;34999;50.940;3.998;2022-12-18T05:18:26;-7.50;99.90
48946;DHT22;34999;50.940;3.998;2022-12-18T05:20:55;-7.50;99.90
48946;DHT22;34999;50.940;3.998;2022-12-18T05:23:24;-7.50;99.90
48946;DHT22;34999;50.940;3.998;2022-12-18T05:25:53;-7.50;99.90
48946;DHT22;34999;50.940;3.998;2022-12-18T05:28:23;-7.50;99.90
48946;DHT22;34999;50.940;3.998;2022-12-18T05:30:53;-7.50;99.90
48946;DHT22;34999;50.940;3.998;2022-12-18T05:33:22;-7.50;99.90
48946;DHT22;34999;50.940;3.998;2022-12-18T05:35:52;-7.60;99.90
48946;DHT22;34999;50.940;3.998;2022-12-18T05:38:21;-7.70;99.90
48946;DHT22;34999;50.940;3.998;2022-12-18T05:40:52;-7.70;99.90
48946;DHT22;34999;50.940;3.998;2022-12-18T05:43:21;-7.80;99.90
48946;DHT22;34999;50.940;3.998;2022-12-18T05:45:52;-7.80;99.90
48946;DHT22;34999;50.940;3.998;2022-12-18T05:48:21;-7.80;99.90
48946;DHT22;34999;50.940;3.998;2022-12-18T05:50:50;-7.80;99.90
48946;DHT22;34999;50.940;3.998;2022-12-18T05:53:19;-7.80;99.90
48946;DHT22;34999;50.940;3.998;2022-12-18T05:55:48;-7.80;99.90
48946;DHT22;34999;50.940;3.998;2022-12-18T05:58:18;-7.80;99.90
48946;DHT22;34999;50.940;3.998;2022-12-18T06:00:46;-7.80;99.90
48946;DHT22;34999;50.940;3.998;2022-12-18T06:03:14;-7.80;99.90
48946;DHT22;34999;50.940;3.998;2022-12-18T06:05:44;-7.80;99.90
48946;DHT22;34999;50.940;3.998;2022-12-18T06:08:15;-7.80;99.90
48946;DHT22;34999;50.940;3.998;2022-12-18T06:10:50;-7.80;99.90
48946;DHT22;34999;50.940;3.998;2022-12-18T06:13:21;-7.80;99.90
48946;DHT22;34999;50.940;3.998;2022-12-18T06:15:49;-7.70;99.90
48946;DHT22;34999;50.940;3.998;2022-12-18T06:18:17;-7.70;99.90
48946;DHT22;34999;50.940;3.998;2022-12-18T06:20:54;-7.80;99.90
48946;DHT22;34999;50.940;3.998;2022-12-18T06:23:24;-7.70;99.90
48946;DHT22;34999;50.940;3.998;2022-12-18T06:25:52;-7.70;99.90
48946;DHT22;34999;50.940;3.998;2022-12-18T06:28:21;-7.70;99.90
48946;DHT22;34999;50.940;3.998;2022-12-18T06:30:50;-7.70;99.90
48946;DHT22;34999;50.940;3.998;2022-12-18T06:33:18;-7.70;99.90
48946;DHT22;34999;50.940;3.998;2022-12-18T06:35:46;-7.70;99.90
48946;DHT22;34999;50.940;3.998;2022-12-18T06:38:15;-7.80;99.90
48946;DHT22;34999;50.940;3.998;2022-12-18T06:40:43;-7.80;99.90
48946;DHT22;34999;50.940;3.998;2022-12-18T06:43:11;-7.80;99.90
48946;DHT22;34999;50.940;3.998;2022-12-18T06:45:41;-7.80;99.90
48946;DHT22;34999;50.940;3.998;2022-12-18T06:48:10;-7.80;99.90
48946;DHT22;34999;50.940;3.998;2022-12-18T06:50:42;-7.80;99.90
48946;DHT22;34999;50.940;3.998;2022-12-18T06:53:10;-7.80;99.90
48946;DHT22;34999;50.940;3.998;2022-12-18T06:55:39;-7.70;99.90
48946;DHT22;34999;50.940;3.998;2022-12-18T06:58:07;-7.70;99.90
48946;DHT22;34999;50.940;3.998;2022-12-18T07:00:37;-7.70;99.90
48946;DHT22;34999;50.940;3.998;2022-12-18T07:03:06;-7.70;99.90
48946;DHT22;34999;50.940;3.998;2022-12-18T07:05:39;-7.70;99.90
48946;DHT22;34999;50.940;3.998;2022-12-18T07:08:08;-7.70;99.90
48946;DHT22;34999;50.940;3.998;2022-12-18T07:10:41;-7.70;99.90
48946;DHT22;34999;50.940;3.998;2022-12-18T07:13:14;-7.70;99.90
48946;DHT22;34999;50.940;3.998;2022-12-18T07:15:42;-7.60;99.90
48946;DHT22;34999;50.940;3.998;2022-12-18T07:18:12;-7.60;99.90
48946;DHT22;34999;50.940;3.998;2022-12-18T07:20:41;-7.50;99.90
48946;DHT22;34999;50.940;3.998;2022-12-18T07:23:09;-7.50;99.90
48946;DHT22;34999;50.940;3.998;2022-12-18T07:25:37;-7.50;99.90
48946;DHT22;34999;50.940;3.998;2022-12-18T07:28:09;-7.60;99.90
48946;DHT22;34999;50.940;3.998;2022-12-18T07:30:43;-7.60;99.90
48946;DHT22;34999;50.940;3.998;2022-12-18T07:33:15;-7.70;99.90
48946;DHT22;34999;50.940;3.998;2022-12-18T07:35:43;-7.70;99.90
48946;DHT22;34999;50.940;3.998;2022-12-18T07:38:11;-7.70;99.90
48946;DHT22;34999;50.940;3.998;2022-12-18T07:40:47;-7.80;99.90
48946;DHT22;34999;50.940;3.998;2022-12-18T07:43:15;-7.80;99.90
48946;DHT22;34999;50.940;3.998;2022-12-18T07:45:43;-7.80;99.90
48946;DHT22;34999;50.940;3.998;2022-12-18T07:48:13;-7.80;99.90
48946;DHT22;34999;50.940;3.998;2022-12-18T07:50:42;-7.80;99.90
48946;DHT22;34999;50.940;3.998;2022-12-18T07:53:10;-7.80;99.90
48946;DHT22;34999;50.940;3.998;2022-12-18T07:55:38;-7.90;99.90
48946;DHT22;34999;50.940;3.998;2022-12-18T07:58:26;-7.80;99.90
48946;DHT22;34999;50.940;3.998;2022-12-18T08:01:02;-7.80;99.90
48946;DHT22;34999;50.940;3.998;2022-12-18T08:03:33;-7.70;99.90
48946;DHT22;34999;50.940;3.998;2022-12-18T08:06:03;-7.70;99.90
48946;DHT22;34999;50.940;3.998;2022-12-18T08:08:34;-7.50;99.90
48946;DHT22;34999;50.940;3.998;2022-12-18T08:11:14;-7.40;99.90
48946;DHT22;34999;50.940;3.998;2022-12-18T08:13:43;-7.40;99.90
48946;DHT22;34999;50.940;3.998;2022-12-18T08:16:11;-7.30;99.90
48946;DHT22;34999;50.940;3.998;2022-12-18T08:18:41;-7.30;99.90
48946;DHT22;34999;50.940;3.998;2022-12-18T08:21:10;-7.20;99.90
48946;DHT22;34999;50.940;3.998;2022-12-18T08:23:39;-7.20;99.90
48946;DHT22;34999;50.940;3.998;2022-12-18T08:26:09;-7.10;99.90
48946;DHT22;34999;50.940;3.998;2022-12-18T08:28:38;-7.00;99.90
48946;DHT22;34999;50.940;3.998;2022-12-18T08:31:07;-7.00;99.90
48946;DHT22;34999;50.940;3.998;2022-12-18T08:33:36;-6.90;99.90
48946;DHT22;34999;50.940;3.998;2022-12-18T08:36:08;-6.80;99.90
48946;DHT22;34999;50.940;3.998;2022-12-18T08:38:36;-6.70;99.90
48946;DHT22;34999;50.940;3.998;2022-12-18T08:41:06;-6.60;99.90
48946;DHT22;34999;50.940;3.998;2022-12-18T08:43:38;-6.40;99.90
48946;DHT22;34999;50.940;3.998;2022-12-18T08:46:25;-6.30;99.90
48946;DHT22;34999;50.940;3.998;2022-12-18T08:48:54;-6.20;99.90
48946;DHT22;34999;50.940;3.998;2022-12-18T08:51:24;-6.00;99.90
48946;DHT22;34999;50.940;3.998;2022-12-18T08:54:11;-5.90;99.90
48946;DHT22;34999;50.940;3.998;2022-12-18T08:56:40;-5.70;99.90
48946;DHT22;34999;50.940;3.998;2022-12-18T08:59:08;-5.60;99.90
48946;DHT22;34999;50.940;3.998;2022-12-18T09:01:45;-5.50;99.90
48946;DHT22;34999;50.940;3.998;2022-12-18T09:04:14;-5.40;99.90
48946;DHT22;34999;50.940;3.998;2022-12-18T09:06:44;-5.30;99.90
48946;DHT22;34999;50.940;3.998;2022-12-18T09:09:12;-5.30;99.90
48946;DHT22;34999;50.940;3.998;2022-12-18T09:11:41;-5.20;99.90
48946;DHT22;34999;50.940;3.998;2022-12-18T09:14:09;-5.10;99.90
48946;DHT22;34999;50.940;3.998;2022-12-18T09:16:38;-5.00;99.90
48946;DHT22;34999;50.940;3.998;2022-12-18T09:19:10;-4.90;99.90
48946;DHT22;34999;50.940;3.998;2022-12-18T09:21:38;-4.80;99.90
48946;DHT22;34999;50.940;3.998;2022-12-18T09:24:15;-4.80;99.90
48946;DHT22;34999;50.940;3.998;2022-12-18T09:26:44;-4.70;99.90
48946;DHT22;34999;50.940;3.998;2022-12-18T09:29:14;-4.60;99.90
48946;DHT22;34999;50.940;3.998;2022-12-18T09:31:44;-4.50;99.90
48946;DHT22;34999;50.940;3.998;2022-12-18T09:34:13;-4.30;99.90
48946;DHT22;34999;50.940;3.998;2022-12-18T09:36:41;-4.20;99.90
48946;DHT22;34999;50.940;3.998;2022-12-18T09:39:09;-4.00;99.90
48946;DHT22;34999;50.940;3.998;2022-12-18T09:41:45;-3.90;99.90
48946;DHT22;34999;50.940;3.998;2022-12-18T09:44:19;-3.80;99.90
48946;DHT22;34999;50.940;3.998;2022-12-18T09:46:54;-3.70;99.90
48946;DHT22;34999;50.940;3.998;2022-12-18T09:49:29;-3.60;99.90
48946;DHT22;34999;50.940;3.998;2022-12-18T09:52:03;-3.50;99.90
48946;DHT22;34999;50.940;3.998;2022-12-18T09:54:36;-3.40;99.90
48946;DHT22;34999;50.940;3.998;2022-12-18T09:57:18;-3.30;99.90
48946;DHT22;34999;50.940;3.998;2022-12-18T09:59:51;-3.20;99.90
48946;DHT22;34999;50.940;3.998;2022-12-18T10:02:23;-3.10;99.90
48946;DHT22;34999;50.940;3.998;2022-12-18T10:05:02;-3.00;99.90
48946;DHT22;34999;50.940;3.998;2022-12-18T10:07:38;-3.00;99.90
48946;DHT22;34999;50.940;3.998;2022-12-18T10:10:19;-2.90;99.90
48946;DHT22;34999;50.940;3.998;2022-12-18T10:12:55;-2.80;99.90
48946;DHT22;34999;50.940;3.998;2022-12-18T10:15:36;-2.80;99.90
48946;DHT22;34999;50.940;3.998;2022-12-18T10:18:21;-2.70;99.90
48946;DHT22;34999;50.940;3.998;2022-12-18T10:20:55;-2.60;99.90
48946;DHT22;34999;50.940;3.998;2022-12-18T10:23:28;-2.60;99.90
48946;DHT22;34999;50.940;3.998;2022-12-18T10:26:02;-2.50;99.90
48946;DHT22;34999;50.940;3.998;2022-12-18T10:28:35;-2.50;99.90
48946;DHT22;34999;50.940;3.998;2022-12-18T10:31:05;-2.40;99.90
48946;DHT22;34999;50.940;3.998;2022-12-18T10:33:34;-2.30;99.90
48946;DHT22;34999;50.940;3.998;2022-12-18T10:36:03;-2.30;99.90
48946;DHT22;34999;50.940;3.998;2022-12-18T10:38:33;-2.20;99.90
48946;DHT22;34999;50.940;3.998;2022-12-18T10:41:04;-2.10;99.90
48946;DHT22;34999;50.940;3.998;2022-12-18T10:43:36;-2.10;99.90
48946;DHT22;34999;50.940;3.998;2022-12-18T10:46:12;-2.00;99.90
48946;DHT22;34999;50.940;3.998;2022-12-18T10:48:52;-1.90;99.90
48946;DHT22;34999;50.940;3.998;2022-12-18T10:51:24;-1.90;99.90
48946;DHT22;34999;50.940;3.998;2022-12-18T10:54:00;-1.80;99.90
48946;DHT22;34999;50.940;3.998;2022-12-18T10:56:34;-1.70;99.90
48946;DHT22;34999;50.940;3.998;2022-12-18T10:59:06;-1.70;99.90
48946;DHT22;34999;50.940;3.998;2022-12-18T11:01:46;-1.60;99.90
48946;DHT22;34999;50.940;3.998;2022-12-18T11:04:19;-1.60;99.90
48946;DHT22;34999;50.940;3.998;2022-12-18T11:06:57;-1.60;99.90
48946;DHT22;34999;50.940;3.998;2022-12-18T11:09:30;-1.50;99.90
48946;DHT22;34999;50.940;3.998;2022-12-18T11:12:01;-1.60;99.90
48946;DHT22;34999;50.940;3.998;2022-12-18T11:14:34;-1.50;99.90
48946;DHT22;34999;50.940;3.998;2022-12-18T11:17:19;-1.50;99.90
48946;DHT22;34999;50.940;3.998;2022-12-18T11:19:53;-1.50;99.90
48946;DHT22;34999;50.940;3.998;2022-12-18T11:22:24;-1.50;99.90
48946;DHT22;34999;50.940;3.998;2022-12-18T11:24:56;-1.40;99.90
48946;DHT22;34999;50.940;3.998;2022-12-18T11:27:48;-1.40;99.90
48946;DHT22;34999;50.940;3.998;2022-12-18T11:30:24;-1.40;99.90
48946;DHT22;34999;50.940;3.998;2022-12-18T11:32:56;-1.30;99.90
48946;DHT22;34999;50.940;3.998;2022-12-18T11:35:43;-1.30;99.90
48946;DHT22;34999;50.940;3.998;2022-12-18T11:38:20;-1.30;99.90
48946;DHT22;34999;50.940;3.998;2022-12-18T11:40:55;-1.20;99.90
48946;DHT22;34999;50.940;3.998;2022-12-18T11:43:28;-1.10;99.90
48946;DHT22;34999;50.940;3.998;2022-12-18T11:46:01;-1.00;99.90
48946;DHT22;34999;50.940;3.998;2022-12-18T11:48:33;-1.00;99.90
48946;DHT22;34999;50.940;3.998;2022-12-18T11:51:04;-1.00;99.90
48946;DHT22;34999;50.940;3.998;2022-12-18T11:53:33;-1.00;99.90
48946;DHT22;34999;50.940;3.998;2022-12-18T11:56:18;-1.00;99.90
48946;DHT22;34999;50.940;3.998;2022-12-18T11:58:59;-0.90;99.90
48946;DHT22;34999;50.940;3.998;2022-12-18T12:01:39;-0.80;99.90
48946;DHT22;34999;50.940;3.998;2022-12-18T12:07:26;-0.80;99.90
48946;DHT22;34999;50.940;3.998;2022-12-18T12:10:08;-0.70;99.90
48946;DHT22;34999;50.940;3.998;2022-12-18T12:12:48;-0.70;99.90
48946;DHT22;34999;50.940;3.998;2022-12-18T12:15:33;-0.60;99.90
48946;DHT22;34999;50.940;3.998;2022-12-18T12:18:17;-0.60;99.90
48946;DHT22;34999;50.940;3.998;2022-12-18T12:20:52;-0.60;99.90
48946;DHT22;34999;50.940;3.998;2022-12-18T12:23:29;-0.60;99.90
48946;DHT22;34999;50.940;3.998;2022-12-18T12:26:04;-0.40;99.90
48946;DHT22;34999;50.940;3.998;2022-12-18T12:28:52;-0.40;99.90
48946;DHT22;34999;50.940;3.998;2022-12-18T12:31:33;-0.40;99.90
48946;DHT22;34999;50.940;3.998;2022-12-18T12:34:12;-0.40;99.90
48946;DHT22;34999;50.940;3.998;2022-12-18T12:36:52;-0.30;99.90
48946;DHT22;34999;50.940;3.998;2022-12-18T12:39:29;-0.20;99.90
48946;DHT22;34999;50.940;3.998;2022-12-18T12:41:58;-0.10;99.90
48946;DHT22;34999;50.940;3.998;2022-12-18T12:44:48;0.00;99.90
48946;DHT22;34999;50.940;3.998;2022-12-18T12:47:26;-0.10;99.90
48946;DHT22;34999;50.940;3.998;2022-12-18T12:49:58;0.00;99.90
48946;DHT22;34999;50.940;3.998;2022-12-18T12:52:35;0.00;99.90
48946;DHT22;34999;50.940;3.998;2022-12-18T12:55:06;0.00;99.90
48946;DHT22;34999;50.940;3.998;2022-12-18T12:57:46;0.00;99.90
48946;DHT22;34999;50.940;3.998;2022-12-18T13:00:18;0.10;99.90
48946;DHT22;34999;50.940;3.998;2022-12-18T13:02:52;0.00;99.90
48946;DHT22;34999;50.940;3.998;2022-12-18T13:05:30;0.00;99.90
48946;DHT22;34999;50.940;3.998;2022-12-18T13:08:04;0.10;99.90
48946;DHT22;34999;50.940;3.998;2022-12-18T13:10:35;0.10;99.90
48946;DHT22;34999;50.940;3.998;2022-12-18T13:13:06;0.10;99.90
48946;DHT22;34999;50.940;3.998;2022-12-18T13:15:42;0.20;99.90
48946;DHT22;34999;50.940;3.998;2022-12-18T13:18:16;0.10;99.90
48946;DHT22;34999;50.940;3.998;2022-12-18T13:20:48;0.20;99.90
48946;DHT22;34999;50.940;3.998;2022-12-18T13:23:33;0.20;99.90
48946;DHT22;34999;50.940;3.998;2022-12-18T13:26:32;0.20;99.90
48946;DHT22;34999;50.940;3.998;2022-12-18T13:29:02;0.20;99.90
48946;DHT22;34999;50.940;3.998;2022-12-18T13:31:58;0.20;99.90
48946;DHT22;34999;50.940;3.998;2022-12-18T13:34:27;0.20;99.90
48946;DHT22;34999;50.940;3.998;2022-12-18T13:40:06;0.20;99.90
48946;DHT22;34999;50.940;3.998;2022-12-18T13:42:50;0.20;99.90
48946;DHT22;34999;50.940;3.998;2022-12-18T13:45:44;0.30;99.90
48946;DHT22;34999;50.940;3.998;2022-12-18T13:48:22;0.30;99.90
48946;DHT22;34999;50.940;3.998;2022-12-18T13:50:55;0.20;99.90
48946;DHT22;34999;50.940;3.998;2022-12-18T13:53:27;0.30;99.90
48946;DHT22;34999;50.940;3.998;2022-12-18T13:55:58;0.30;99.90
48946;DHT22;34999;50.940;3.998;2022-12-18T13:58:27;0.20;99.90
48946;DHT22;34999;50.940;3.998;2022-12-18T14:00:56;0.20;99.90
48946;DHT22;34999;50.940;3.998;2022-12-18T14:03:28;0.20;99.90
48946;DHT22;34999;50.940;3.998;2022-12-18T14:06:02;0.20;99.90
48946;DHT22;34999;50.940;3.998;2022-12-18T14:08:36;0.10;99.90
48946;DHT22;34999;50.940;3.998;2022-12-18T14:14:48;0.10;99.90
48946;DHT22;34999;50.940;3.998;2022-12-18T14:17:21;0.10;99.90
48946;DHT22;34999;50.940;3.998;2022-12-18T14:19:51;0.00;99.90
48946;DHT22;34999;50.940;3.998;2022-12-18T14:22:21;0.00;99.90
48946;DHT22;34999;50.940;3.998;2022-12-18T14:25:13;0.10;99.90
48946;DHT22;34999;50.940;3.998;2022-12-18T14:27:44;0.00;99.90
48946;DHT22;34999;50.940;3.998;2022-12-18T14:30:25;0.10;99.90
48946;DHT22;34999;50.940;3.998;2022-12-18T14:33:04;0.10;99.90
48946;DHT22;34999;50.940;3.998;2022-12-18T14:35:38;0.10;99.90
48946;DHT22;34999;50.940;3.998;2022-12-18T14:38:24;0.10;99.90
48946;DHT22;34999;50.940;3.998;2022-12-18T14:40:55;0.00;99.90
48946;DHT22;34999;50.940;3.998;2022-12-18T14:43:27;0.00;99.90
48946;DHT22;34999;50.940;3.998;2022-12-18T14:45:58;0.00;99.90
48946;DHT22;34999;50.940;3.998;2022-12-18T14:48:36;0.00;99.90
48946;DHT22;34999;50.940;3.998;2022-12-18T14:51:13;0.00;99.90
48946;DHT22;34999;50.940;3.998;2022-12-18T14:53:45;0.00;99.90
48946;DHT22;34999;50.940;3.998;2022-12-18T14:56:22;0.10;99.90
48946;DHT22;34999;50.940;3.998;2022-12-18T14:58:54;0.00;99.90
48946;DHT22;34999;50.940;3.998;2022-12-18T15:01:27;0.10;99.90
48946;DHT22;34999;50.940;3.998;2022-12-18T15:03:57;0.00;99.90
48946;DHT22;34999;50.940;3.998;2022-12-18T15:06:29;0.00;99.90
48946;DHT22;34999;50.940;3.998;2022-12-18T15:08:59;0.00;99.90
48946;DHT22;34999;50.940;3.998;2022-12-18T15:11:33;0.00;99.90
48946;DHT22;34999;50.940;3.998;2022-12-18T15:14:21;0.00;99.90
48946;DHT22;34999;50.940;3.998;2022-12-18T15:16:54;0.00;99.90
48946;DHT22;34999;50.940;3.998;2022-12-18T15:19:28;0.10;99.90
48946;DHT22;34999;50.940;3.998;2022-12-18T15:22:00;0.00;99.90
48946;DHT22;34999;50.940;3.998;2022-12-18T15:24:32;0.10;99.90
48946;DHT22;34999;50.940;3.998;2022-12-18T15:27:01;0.10;99.90
48946;DHT22;34999;50.940;3.998;2022-12-18T15:29:29;0.10;99.90
48946;DHT22;34999;50.940;3.998;2022-12-18T15:32:01;0.10;99.90
48946;DHT22;34999;50.940;3.998;2022-12-18T15:34:31;0.20;99.90
48946;DHT22;34999;50.940;3.998;2022-12-18T15:37:00;0.20;99.90
48946;DHT22;34999;50.940;3.998;2022-12-18T15:39:29;0.20;99.90
48946;DHT22;34999;50.940;3.998;2022-12-18T15:42:00;0.20;99.90
48946;DHT22;34999;50.940;3.998;2022-12-18T15:44:46;0.20;99.90
48946;DHT22;34999;50.940;3.998;2022-12-18T15:47:18;0.20;99.90
48946;DHT22;34999;50.940;3.998;2022-12-18T15:49:46;0.20;99.90
48946;DHT22;34999;50.940;3.998;2022-12-18T15:52:14;0.20;99.90
48946;DHT22;34999;50.940;3.998;2022-12-18T15:54:53;0.20;99.90
48946;DHT22;34999;50.940;3.998;2022-12-18T15:57:38;0.20;99.90
48946;DHT22;34999;50.940;3.998;2022-12-18T16:00:12;0.20;99.90
48946;DHT22;34999;50.940;3.998;2022-12-18T16:02:42;0.30;99.90
48946;DHT22;34999;50.940;3.998;2022-12-18T16:05:20;0.30;99.90
48946;DHT22;34999;50.940;3.998;2022-12-18T16:07:50;0.20;99.90
48946;DHT22;34999;50.940;3.998;2022-12-18T16:10:24;0.20;99.90
48946;DHT22;34999;50.940;3.998;2022-12-18T16:12:52;0.30;99.90
48946;DHT22;34999;50.940;3.998;2022-12-18T16:15:20;0.30;99.90
48946;DHT22;34999;50.940;3.998;2022-12-18T16:17:52;0.30;99.90
48946;DHT22;34999;50.940;3.998;2022-12-18T16:20:22;0.30;99.90
48946;DHT22;34999;50.940;3.998;2022-12-18T16:22:50;0.40;99.90
48946;DHT22;34999;50.940;3.998;2022-12-18T16:25:21;0.40;99.90
48946;DHT22;34999;50.940;3.998;2022-12-18T16:27:51;0.40;99.90